Time;durP1;ratioP1;P1;durP2;ratioP2;P2;SDS_P1;SDS_P2;PMS_P1;PMS_P2;Temp;Humidity;BMP_temperature;BMP_pressure;BME280_temperature;BME280_humidity;BME280_pressure;Samples;Min_cycle;Max_cycle;Signal;HPM_P1;HPM_P2
2023/07/20 00:00:53;;;;;;;4.30;1.60;;;;;;;23.89;49.01;101333.25;4987465;28;20448;-67
2023/07/20 00:03:24;;;;;;;3.28;1.50;;;;;;;23.90;48.95;101337.59;4987385;28;20522;-65
2023/07/20 00:05:50;;;;;;;3.40;1.63;;;;;;;23.91;48.73;101344.59;4987321;28;21406;-66
2023/07/20 00:08:17;;;;;;;4.65;1.50;;;;;;;23.89;48.88;101338.56;4987489;28;20105;-65
2023/07/20 00:10:42;;;;;;;3.58;1.80;;;;;;;23.90;48.88;101348.25;4986940;28;20534;-67
2023/07/20 00:13:08;;;;;;;4.65;1.60;;;;;;;23.88;48.72;101335.09;4987890;28;20030;-67
2023/07/20 00:15:33;;;;;;;4.72;1.67;;;;;;;23.89;49.11;101342.09;4988211;28;20034;-68
2023/07/20 00:17:59;;;;;;;3.35;1.95;;;;;;;23.88;49.09;101337.75;4987417;28;20441;-67
2023/07/20 00:20:25;;;;;;;3.25;1.55;;;;;;;23.88;48.89;101343.06;4987432;28;20049;-67
2023/07/20 00:22:51;;;;;;;3.17;1.60;;;;;;;23.89;49.07;101338.56;4969882;28;20633;-66
2023/07/20 00:25:16;;;;;;;4.32;1.70;;;;;;;23.88;49.03;101347.56;4987649;28;20041;-67
2023/07/20 00:27:42;;;;;;;2.97;1.42;;;;;;;23.88;48.72;101352.91;4987456;28;20451;-68
2023/07/20 00:30:08;;;;;;;4.63;1.70;;;;;;;23.87;48.76;101352.03;4987190;28;20069;-67
2023/07/20 00:32:33;;;;;;;4.13;1.88;;;;;;;23.88;49.01;101359.03;4987414;28;20042;-65
2023/07/20 00:34:58;;;;;;;3.55;1.60;;;;;;;23.87;48.59;101341.38;4987254;28;20100;-65
2023/07/20 00:37:24;;;;;;;3.85;1.80;;;;;;;23.86;48.79;101345.06;4986951;28;20030;-65
2023/07/20 00:39:49;;;;;;;3.83;1.67;;;;;;;23.87;48.75;101346.72;4987659;28;20029;-65
2023/07/20 00:42:14;;;;;;;3.87;1.93;;;;;;;23.87;48.46;101343.22;4987496;28;20505;-66
2023/07/20 00:44:40;;;;;;;4.18;1.70;;;;;;;23.86;49.09;101347.72;4987191;28;20260;-66
2023/07/20 00:47:06;;;;;;;4.28;1.67;;;;;;;23.86;48.66;101350.38;4986999;28;20068;-67
2023/07/20 00:49:31;;;;;;;5.00;1.77;;;;;;;23.85;49.10;101345.19;4987027;28;20034;-64
2023/07/20 00:51:57;;;;;;;3.83;1.65;;;;;;;23.86;48.52;101353.03;4969270;28;20529;-65
2023/07/20 00:54:23;;;;;;;5.05;1.88;;;;;;;23.85;48.53;101347.88;4987367;28;20026;-67
2023/07/20 00:56:50;;;;;;;6.57;2.05;;;;;;;23.84;48.78;101339.03;4986528;28;20408;-68
2023/07/20 00:59:15;;;;;;;4.55;2.00;;;;;;;23.84;48.75;101344.34;4969936;28;20038;-66
2023/07/20 01:01:41;;;;;;;5.53;1.88;;;;;;;23.85;48.52;101343.38;4986582;28;20164;-66
2023/07/20 01:04:06;;;;;;;3.63;1.67;;;;;;;23.85;48.77;101339.88;4986698;28;20356;-65
2023/07/20 01:06:46;;;;;;;4.00;1.63;;;;;;;23.82;48.88;101343.63;4986355;28;20032;-66
2023/07/20 01:09:37;;;;;;;5.00;2.10;;;;;;;23.84;48.72;101343.53;4986886;28;20065;-66
2023/07/20 01:12:12;;;;;;;5.38;2.20;;;;;;;23.83;48.75;101345.34;4986935;28;20635;-68
2023/07/20 01:14:37;;;;;;;4.28;1.95;;;;;;;23.84;48.62;101352.34;4986342;28;20088;-66
2023/07/20 01:17:03;;;;;;;4.80;2.03;;;;;;;23.84;48.41;101352.34;4987100;28;20034;-68
2023/07/20 01:19:28;;;;;;;3.83;1.88;;;;;;;23.83;48.60;101350.69;4986801;28;20463;-67
2023/07/20 01:22:02;;;;;;;3.75;1.75;;;;;;;23.82;48.84;101353.47;4986820;28;20022;-66
2023/07/20 01:24:50;;;;;;;4.50;2.03;;;;;;;23.83;48.69;101357.78;4986549;28;20037;-67
2023/07/20 01:27:44;;;;;;;4.68;1.90;;;;;;;23.83;48.20;101361.31;4974226;28;20046;-68
2023/07/20 01:30:39;;;;;;;4.90;2.00;;;;;;;23.82;48.28;101354.28;4986707;28;20545;-68
2023/07/20 01:33:07;;;;;;;4.40;1.90;;;;;;;23.82;48.15;101356.94;4986092;28;20022;-66
2023/07/20 01:35:34;;;;;;;4.68;2.10;;;;;;;23.81;48.63;101363.25;4986695;28;20801;-68
2023/07/20 01:38:01;;;;;;;5.20;1.98;;;;;;;23.80;48.17;101358.06;4986923;28;20136;-65
2023/07/20 01:40:27;;;;;;;4.72;2.00;;;;;;;23.81;48.21;101360.59;4986233;28;20022;-68
2023/07/20 01:42:53;;;;;;;4.32;2.08;;;;;;;23.79;48.41;101359.91;4986689;28;20034;-68
2023/07/20 01:45:19;;;;;;;4.45;2.00;;;;;;;23.80;48.38;101360.72;4986552;28;20042;-67
2023/07/20 01:47:44;;;;;;;6.75;2.78;;;;;;;23.79;48.71;101357.25;4986369;28;20035;-66
2023/07/20 01:50:10;;;;;;;4.30;1.90;;;;;;;23.79;48.64;101359.06;4986402;28;20030;-65
2023/07/20 01:52:35;;;;;;;4.97;1.90;;;;;;;23.80;48.28;101366.06;4986111;28;20030;-66
2023/07/20 01:55:01;;;;;;;3.72;1.90;;;;;;;23.78;48.20;101357.38;4986763;28;20089;-66
2023/07/20 01:57:26;;;;;;;3.53;1.88;;;;;;;23.78;48.60;101355.56;4986548;28;20077;-65
2023/07/20 01:59:51;;;;;;;3.80;1.85;;;;;;;23.77;48.67;101361.88;4986263;28;20026;-68
2023/07/20 02:02:18;;;;;;;5.60;2.50;;;;;;;23.77;48.08;101366.38;4986368;28;20026;-66
2023/07/20 02:04:43;;;;;;;3.97;2.15;;;;;;;23.77;48.52;101364.53;4988745;28;20288;-67
2023/07/20 02:07:08;;;;;;;4.53;1.92;;;;;;;23.79;48.31;101375.03;4989329;28;20153;-66
2023/07/20 02:09:34;;;;;;;5.05;1.80;;;;;;;23.79;48.65;101367.06;4989933;28;20070;-68
2023/07/20 02:11:59;;;;;;;4.57;1.92;;;;;;;23.77;48.79;101363.72;4989164;28;20018;-68
2023/07/20 02:14:24;;;;;;;4.97;2.30;;;;;;;23.76;48.70;101368.19;4989373;28;20026;-67
2023/07/20 02:16:52;;;;;;;6.25;2.17;;;;;;;23.76;48.65;101376.16;4988385;28;20096;-67
2023/07/20 02:19:22;;;;;;;6.70;2.10;;;;;;;23.76;48.50;101372.69;4989399;28;20039;-67
2023/07/20 02:21:47;;;;;;;4.32;2.13;;;;;;;23.76;48.11;101373.50;4971546;28;20092;-68
2023/07/20 02:24:13;;;;;;;4.47;2.00;;;;;;;23.78;48.21;101376.84;4972038;28;20038;-66
2023/07/20 02:26:38;;;;;;;4.63;2.10;;;;;;;23.75;48.53;101371.84;4988556;28;20046;-65
2023/07/20 02:29:04;;;;;;;4.18;1.90;;;;;;;23.77;48.16;101377.84;4989909;28;20046;-68
2023/07/20 02:31:30;;;;;;;4.18;2.00;;;;;;;23.78;48.39;101384.00;4989561;28;20474;-64
2023/07/20 02:33:55;;;;;;;3.78;1.90;;;;;;;23.76;48.47;101386.81;4989765;28;20034;-68
2023/07/20 02:36:20;;;;;;;5.05;2.00;;;;;;;23.76;48.70;101383.31;4988316;28;20044;-68
2023/07/20 02:38:46;;;;;;;4.90;2.00;;;;;;;23.75;48.39;101384.28;4989566;28;20030;-69
2023/07/20 02:41:12;;;;;;;5.20;2.30;;;;;;;23.76;48.65;101397.47;4990031;28;20026;-66
2023/07/20 02:43:38;;;;;;;4.47;2.17;;;;;;;23.76;48.40;101393.97;4988663;28;20065;-69
2023/07/20 02:46:03;;;;;;;4.38;1.92;;;;;;;23.76;48.76;101394.78;4989225;28;20070;-65
2023/07/20 02:48:29;;;;;;;4.68;2.10;;;;;;;23.76;48.34;101392.13;4989072;28;20487;-67
2023/07/20 02:50:54;;;;;;;5.35;2.28;;;;;;;23.76;48.39;101391.31;4989299;28;20398;-68
2023/07/20 02:53:19;;;;;;;4.97;2.13;;;;;;;23.73;48.79;101385.31;4988921;28;20134;-68
2023/07/20 02:55:44;;;;;;;4.57;2.13;;;;;;;23.74;48.68;101394.13;4988941;28;20481;-68
2023/07/20 02:58:10;;;;;;;5.07;2.27;;;;;;;23.75;48.67;101403.78;4989010;28;20101;-68
2023/07/20 03:00:35;;;;;;;5.28;2.08;;;;;;;23.74;48.79;101402.09;4989494;28;20270;-68
2023/07/20 03:03:00;;;;;;;6.53;2.50;;;;;;;23.72;48.42;101406.75;4988953;28;20084;-68
2023/07/20 03:05:27;;;;;;;4.97;1.95;;;;;;;23.74;48.49;101415.41;4989550;28;20104;-68
2023/07/20 03:07:53;;;;;;;4.82;2.20;;;;;;;23.70;48.40;101411.34;4989041;28;20041;-66
2023/07/20 03:10:18;;;;;;;3.65;2.10;;;;;;;23.73;48.92;101411.91;4988598;28;20043;-67
2023/07/20 03:12:43;;;;;;;4.60;2.25;;;;;;;23.72;48.52;101412.88;4988899;28;20443;-66
2023/07/20 03:15:09;;;;;;;4.93;2.28;;;;;;;23.75;48.92;101413.56;4987906;28;20034;-67
2023/07/20 03:17:34;;;;;;;4.68;2.30;;;;;;;23.73;48.32;101419.03;4988898;28;20035;-68
2023/07/20 03:20:00;;;;;;;3.85;2.08;;;;;;;23.73;48.82;101419.03;4988799;28;20019;-69
2023/07/20 03:22:26;;;;;;;4.63;2.22;;;;;;;23.72;48.55;101420.03;4988679;28;20034;-69
2023/07/20 03:24:52;;;;;;;4.43;2.10;;;;;;;23.71;48.72;101416.53;4988960;28;20057;-69
2023/07/20 03:27:17;;;;;;;4.70;2.53;;;;;;;23.73;48.87;101427.88;4988301;28;20018;-68
2023/07/20 03:29:44;;;;;;;4.28;2.13;;;;;;;23.73;48.67;101421.69;4987661;28;20036;-67
2023/07/20 03:32:09;;;;;;;6.15;2.13;;;;;;;23.73;48.73;101424.38;4988525;28;20026;-67
2023/07/20 03:34:35;;;;;;;4.28;2.30;;;;;;;23.70;48.79;101422.84;4988476;28;20460;-67
2023/07/20 03:37:00;;;;;;;5.18;2.38;;;;;;;23.72;48.94;101428.84;4988051;28;20455;-67
2023/07/20 03:39:26;;;;;;;4.60;2.42;;;;;;;23.70;48.55;101424.66;4987969;28;20105;-66
2023/07/20 03:41:51;;;;;;;3.75;2.15;;;;;;;23.70;48.40;101433.50;4988624;28;20085;-66
2023/07/20 03:44:17;;;;;;;4.15;2.10;;;;;;;23.70;48.44;101430.84;4978845;28;20023;-66
2023/07/20 03:46:42;;;;;;;4.55;2.30;;;;;;;23.70;48.49;101438.81;4988207;28;20026;-68
2023/07/20 03:49:08;;;;;;;4.20;2.35;;;;;;;23.72;48.57;101436.00;4988401;28;20026;-67
2023/07/20 03:51:35;;;;;;;4.35;2.05;;;;;;;23.70;48.80;101433.50;4988192;28;20561;-67
2023/07/20 03:54:00;;;;;;;4.35;1.90;;;;;;;23.71;48.44;101443.13;4987440;28;20101;-66
2023/07/20 03:56:26;;;;;;;4.32;2.08;;;;;;;23.69;48.83;101436.31;4987889;28;20034;-65
2023/07/20 03:58:51;;;;;;;4.38;2.28;;;;;;;23.71;48.73;101436.97;4988034;28;20038;-64
2023/07/20 04:01:17;;;;;;;5.15;1.95;;;;;;;23.71;48.54;101444.97;4988573;28;20038;-65
2023/07/20 04:03:43;;;;;;;4.95;2.08;;;;;;;23.69;48.69;101442.47;4987884;28;20066;-66
2023/07/20 04:06:14;;;;;;;3.92;2.03;;;;;;;23.69;48.82;101442.47;4987658;28;20030;-65
2023/07/20 04:08:39;;;;;;;3.95;2.10;;;;;;;23.70;48.48;101446.81;4985430;28;20026;-65
2023/07/20 04:11:04;;;;;;;3.72;2.03;;;;;;;23.70;48.89;101445.94;4985382;28;20054;-67
2023/07/20 04:13:33;;;;;;;4.90;2.10;;;;;;;23.69;48.57;101450.44;4987267;28;20031;-64
2023/07/20 04:15:58;;;;;;;3.55;1.95;;;;;;;23.69;48.73;101449.59;4987328;28;20034;-64
2023/07/20 04:18:24;;;;;;;5.10;2.20;;;;;;;23.67;48.77;101455.06;4987957;28;20034;-65
2023/07/20 04:20:49;;;;;;;4.03;2.05;;;;;;;23.70;48.45;101448.59;4987490;28;20022;-67
2023/07/20 04:23:14;;;;;;;4.20;1.73;;;;;;;23.68;48.84;101450.59;4987441;28;20029;-66
2023/07/20 04:25:40;;;;;;;4.43;1.90;;;;;;;23.68;48.88;101442.59;4987773;28;20388;-66
2023/07/20 04:28:25;;;;;;;5.10;2.47;;;;;;;23.68;48.43;101447.91;4986895;28;20022;-66
2023/07/20 04:30:51;;;;;;;3.70;1.83;;;;;;;23.69;48.30;101445.13;4985900;28;20121;-67
2023/07/20 04:33:17;;;;;;;3.63;1.75;;;;;;;23.69;48.50;101449.59;4985770;28;20577;-67
2023/07/20 04:35:47;;;;;;;2.95;1.52;;;;;;;23.66;48.36;101449.91;4987321;28;20048;-65
2023/07/20 04:38:13;;;;;;;3.55;1.63;;;;;;;23.67;48.33;101446.22;4987122;28;20108;-65
2023/07/20 04:40:38;;;;;;;2.63;1.40;;;;;;;23.67;48.71;101451.56;4985298;28;20595;-65
2023/07/20 04:43:03;;;;;;;3.10;1.50;;;;;;;23.68;48.72;101456.72;4987227;28;20037;-68
2023/07/20 04:45:29;;;;;;;3.20;1.50;;;;;;;23.67;48.36;101448.91;4986819;28;20027;-66
2023/07/20 04:47:55;;;;;;;3.63;1.70;;;;;;;23.66;48.28;101452.56;4986918;28;20404;-65
2023/07/20 04:50:20;;;;;;;3.45;1.60;;;;;;;23.68;48.43;101456.72;4986788;28;20029;-67
2023/07/20 04:52:46;;;;;;;3.45;1.60;;;;;;;23.68;48.20;101454.06;4987274;28;20027;-65
2023/07/20 04:55:11;;;;;;;3.67;1.60;;;;;;;23.68;48.19;101458.56;4986925;28;20057;-68
2023/07/20 04:57:36;;;;;;;3.08;1.65;;;;;;;23.67;48.68;101451.56;4987353;28;20060;-68
2023/07/20 05:00:03;;;;;;;3.00;1.60;;;;;;;23.65;48.53;101443.72;4985828;28;20061;-65
2023/07/20 05:02:29;;;;;;;4.40;1.70;;;;;;;23.67;48.40;101447.09;4986557;28;20039;-66
2023/07/20 05:04:54;;;;;;;4.30;1.75;;;;;;;23.67;48.58;101446.22;4984167;28;20088;-68
2023/07/20 05:07:19;;;;;;;4.07;1.90;;;;;;;23.67;48.52;101438.25;4986706;28;20158;-69
2023/07/20 05:09:45;;;;;;;3.53;1.83;;;;;;;23.67;48.59;101446.22;4986226;28;20137;-66
2023/07/20 05:12:11;;;;;;;4.05;1.92;;;;;;;23.65;48.32;101438.41;4985666;28;20156;-67
2023/07/20 05:14:37;;;;;;;3.40;1.55;;;;;;;23.64;48.24;101443.88;4986789;28;20034;-66
2023/07/20 05:17:02;;;;;;;3.53;1.67;;;;;;;23.66;48.56;101439.25;4986682;28;20049;-68
2023/07/20 05:19:27;;;;;;;3.17;1.80;;;;;;;23.66;48.22;101455.22;4986835;28;20514;-67
2023/07/20 05:21:53;;;;;;;4.40;1.77;;;;;;;23.66;48.13;101460.53;4986695;28;20027;-67
2023/07/20 05:24:18;;;;;;;3.42;1.75;;;;;;;23.64;48.13;101458.03;4987128;28;20499;-66
2023/07/20 05:26:44;;;;;;;4.00;1.90;;;;;;;23.64;48.14;101454.50;4986893;28;20026;-65
2023/07/20 05:29:10;;;;;;;3.80;1.95;;;;;;;23.64;48.68;101459.81;4986708;28;20022;-66
2023/07/20 05:31:35;;;;;;;3.50;1.60;;;;;;;23.65;48.73;101467.66;4987304;28;20459;-66
2023/07/20 05:34:00;;;;;;;3.70;1.80;;;;;;;23.64;48.54;101460.69;4986707;28;20049;-68
2023/07/20 05:36:26;;;;;;;4.00;1.92;;;;;;;23.64;48.66;101466.00;4986688;28;20034;-66
2023/07/20 05:38:52;;;;;;;3.67;1.70;;;;;;;23.63;48.17;101466.16;4988659;28;20034;-66
2023/07/20 05:41:17;;;;;;;3.35;1.52;;;;;;;23.64;48.18;101467.81;4990822;28;20038;-65
2023/07/20 05:43:43;;;;;;;3.40;1.40;;;;;;;23.64;48.25;101470.47;4990695;28;20549;-67
2023/07/20 05:46:08;;;;;;;3.28;1.55;;;;;;;23.62;48.13;101469.78;4990778;28;20462;-69
2023/07/20 05:48:33;;;;;;;3.28;1.65;;;;;;;23.65;48.41;101477.47;4990116;28;20030;-66
2023/07/20 05:50:59;;;;;;;3.03;1.60;;;;;;;23.60;48.28;101472.59;4990065;28;20030;-68
2023/07/20 05:53:24;;;;;;;3.20;1.52;;;;;;;23.61;48.24;101471.63;4990466;28;20034;-68
2023/07/20 05:55:53;;;;;;;3.17;1.58;;;;;;;23.59;48.51;101470.94;4989142;28;20541;-66
2023/07/20 05:58:19;;;;;;;3.83;1.55;;;;;;;23.62;48.27;101481.25;4990129;28;20471;-67
2023/07/20 06:00:47;;;;;;;2.97;1.35;;;;;;;23.61;48.25;101478.78;4990174;28;20054;-68
2023/07/20 06:03:13;;;;;;;3.67;1.50;;;;;;;23.62;48.62;101477.78;4990538;28;20469;-68
2023/07/20 06:05:38;;;;;;;3.50;1.70;;;;;;;23.61;48.69;101476.94;4990509;28;20054;-69
2023/07/20 06:08:04;;;;;;;3.60;1.58;;;;;;;23.59;48.40;101468.28;4989104;28;20058;-66
2023/07/20 06:10:29;;;;;;;2.70;1.20;;;;;;;23.61;48.20;101470.78;4989683;28;20046;-67
2023/07/20 06:12:55;;;;;;;3.05;1.40;;;;;;;23.62;48.74;101478.59;4990191;28;20065;-66
2023/07/20 06:15:25;;;;;;;4.38;1.33;;;;;;;23.58;48.78;101474.56;4989173;28;20580;-69
2023/07/20 06:17:51;;;;;;;3.35;1.23;;;;;;;23.63;48.41;101477.63;4989520;28;20085;-65
2023/07/20 06:20:16;;;;;;;3.45;1.30;;;;;;;23.63;48.46;101479.47;4989902;28;20136;-67
2023/07/20 06:22:41;;;;;;;3.88;1.45;;;;;;;23.60;48.57;101480.56;4990006;28;20641;-65
2023/07/20 06:25:07;;;;;;;3.17;1.30;;;;;;;23.63;48.98;101493.59;4990080;28;20037;-67
2023/07/20 06:27:33;;;;;;;2.30;1.13;;;;;;;23.63;48.78;101492.75;4990024;28;20264;-65
2023/07/20 06:29:58;;;;;;;3.42;1.20;;;;;;;23.64;49.04;101489.09;4989928;28;20065;-67
2023/07/20 06:32:23;;;;;;;3.08;1.20;;;;;;;23.62;49.11;101491.91;4989123;28;20048;-65
2023/07/20 06:34:48;;;;;;;4.07;1.23;;;;;;;23.60;49.09;101496.53;4989572;28;20513;-65
2023/07/20 06:37:14;;;;;;;3.25;1.23;;;;;;;23.64;48.92;101491.75;4989599;28;20034;-65
2023/07/20 06:39:39;;;;;;;2.50;1.27;;;;;;;23.65;49.08;101490.78;4990151;28;20034;-63
2023/07/20 06:42:05;;;;;;;4.20;1.30;;;;;;;23.67;48.92;101480.81;4988570;28;20490;-66
2023/07/20 06:44:31;;;;;;;3.42;1.48;;;;;;;23.66;48.84;101481.84;4989826;28;20105;-64
2023/07/20 06:46:57;;;;;;;4.65;1.30;;;;;;;23.67;49.10;101489.66;4989941;28;20026;-66
2023/07/20 06:49:27;;;;;;;5.13;1.40;;;;;;;23.66;49.10;101484.50;4988804;28;20045;-67
2023/07/20 06:51:52;;;;;;;3.55;1.52;;;;;;;23.67;48.98;101488.81;4989408;28;20657;-66
2023/07/20 06:54:18;;;;;;;2.90;1.60;;;;;;;23.66;49.03;101487.97;4989949;28;20038;-67
2023/07/20 06:56:43;;;;;;;6.47;3.55;;;;;;;23.68;49.28;101493.16;4988907;28;20034;-66
2023/07/20 06:59:08;;;;;;;3.05;1.27;;;;;;;23.66;49.34;101497.78;4989304;28;20497;-67
2023/07/20 07:01:33;;;;;;;2.93;1.23;;;;;;;23.65;49.32;101499.59;4989031;28;20023;-64
2023/07/20 07:03:59;;;;;;;6.57;2.40;;;;;;;23.60;49.39;101499.19;4988091;28;20271;-64
2023/07/20 07:06:25;;;;;;;9.52;3.20;;;;;;;23.60;50.89;101498.38;4987712;28;20141;-66
2023/07/20 07:08:51;;;;;;;8.77;2.83;;;;;;;23.59;51.47;101500.19;4970247;28;20081;-66
2023/07/20 07:11:16;;;;;;;9.27;2.97;;;;;;;23.62;51.73;101501.72;4970192;28;20046;-65
2023/07/20 07:13:41;;;;;;;7.57;2.85;;;;;;;23.64;52.18;101505.06;4988996;28;20046;-67
2023/07/20 07:16:07;;;;;;;7.63;2.20;;;;;;;23.64;51.64;101505.91;4988459;28;20038;-66
2023/07/20 07:18:32;;;;;;;7.50;2.38;;;;;;;23.66;51.70;101506.59;4988665;28;20030;-65
2023/07/20 07:20:58;;;;;;;6.95;2.25;;;;;;;23.66;51.64;101506.59;4988860;28;20034;-65
2023/07/20 07:23:23;;;;;;;9.82;2.60;;;;;;;23.69;52.13;101510.81;4987229;28;20030;-65
2023/07/20 07:25:49;;;;;;;8.20;2.22;;;;;;;23.71;51.70;101514.16;4987919;28;20022;-67
2023/07/20 07:28:14;;;;;;;7.78;2.47;;;;;;;23.69;51.78;101497.50;4988452;28;20057;-66
2023/07/20 07:30:40;;;;;;;7.55;2.58;;;;;;;23.69;51.55;101502.81;4986727;28;20057;-65
2023/07/20 07:33:05;;;;;;;7.28;2.28;;;;;;;23.68;51.94;101504.63;4988153;28;20475;-66
2023/07/20 07:35:30;;;;;;;5.30;2.10;;;;;;;23.70;52.06;101509.81;4988674;28;20473;-67
2023/07/20 07:37:55;;;;;;;5.22;2.28;;;;;;;23.68;51.69;101506.47;4988807;28;20022;-65
2023/07/20 07:40:21;;;;;;;5.43;2.00;;;;;;;23.70;51.55;101510.66;4988567;28;20455;-67
2023/07/20 07:42:47;;;;;;;5.85;1.95;;;;;;;23.64;51.85;101497.06;4988083;28;20384;-67
2023/07/20 07:45:13;;;;;;;7.22;2.10;;;;;;;23.70;51.95;101515.13;4987251;28;20022;-64
2023/07/20 07:47:38;;;;;;;5.15;2.05;;;;;;;23.70;51.56;101516.00;4987708;28;20015;-66
2023/07/20 07:50:04;;;;;;;6.88;1.85;;;;;;;23.66;51.54;101511.94;4988040;28;20037;-66
2023/07/20 07:52:30;;;;;;;5.63;2.05;;;;;;;23.71;51.37;101516.81;4987043;28;20122;-66
2023/07/20 07:54:55;;;;;;;5.55;1.63;;;;;;;23.70;51.22;101518.66;4985837;28;20034;-65
2023/07/20 07:57:20;;;;;;;5.55;1.90;;;;;;;23.67;51.62;101516.28;4986817;28;20105;-67
2023/07/20 07:59:46;;;;;;;4.07;1.50;;;;;;;23.68;51.51;101519.75;4985456;28;20391;-65
2023/07/20 08:02:11;;;;;;;5.00;2.03;;;;;;;23.70;51.24;101531.94;4985950;28;20355;-64
2023/07/20 08:04:36;;;;;;;6.03;1.67;;;;;;;23.70;51.21;101525.78;4987351;28;20386;-66
2023/07/20 08:07:03;;;;;;;5.00;1.90;;;;;;;23.69;51.40;101530.25;4987906;28;20046;-65
2023/07/20 08:09:29;;;;;;;6.15;2.10;;;;;;;23.70;51.45;101525.78;4987854;28;20141;-65
2023/07/20 08:11:55;;;;;;;5.93;2.08;;;;;;;23.71;50.92;101530.13;4987925;28;20034;-67
2023/07/20 08:14:20;;;;;;;5.40;1.88;;;;;;;23.70;51.51;101528.44;4986408;28;20057;-65
2023/07/20 08:16:47;;;;;;;4.43;1.70;;;;;;;23.67;51.50;101526.91;4967298;28;20542;-67
2023/07/20 08:19:12;;;;;;;5.43;1.73;;;;;;;23.68;51.56;101530.41;4986135;28;20361;-64
2023/07/20 08:21:37;;;;;;;4.78;1.45;;;;;;;23.68;51.79;101533.06;4986248;28;20041;-67
2023/07/20 08:24:03;;;;;;;4.00;1.63;;;;;;;23.68;51.75;101531.25;4988094;28;20038;-66
2023/07/20 08:26:29;;;;;;;4.40;1.50;;;;;;;23.66;51.24;101527.88;4986962;28;20041;-64
2023/07/20 08:28:54;;;;;;;4.85;1.60;;;;;;;23.68;51.67;101528.56;4987680;28;20451;-64
2023/07/20 08:31:20;;;;;;;3.83;1.50;;;;;;;23.67;51.40;101523.41;4987456;28;20026;-63
2023/07/20 08:33:48;;;;;;;4.47;1.65;;;;;;;23.68;51.84;101527.75;4987548;28;20025;-66
2023/07/20 08:36:14;;;;;;;4.75;1.33;;;;;;;23.67;51.91;101518.06;4985953;28;20037;-66
2023/07/20 08:38:39;;;;;;;4.03;1.65;;;;;;;23.69;51.49;101518.78;4987447;28;20125;-66
2023/07/20 08:41:04;;;;;;;4.15;1.52;;;;;;;23.67;51.51;101521.59;4987578;28;20049;-65
2023/07/20 08:43:30;;;;;;;5.72;1.70;;;;;;;23.65;51.70;101515.56;4986209;28;20034;-66
2023/07/20 08:45:57;;;;;;;4.47;1.50;;;;;;;23.66;51.23;101517.25;4987405;28;20037;-64
2023/07/20 08:48:24;;;;;;;3.28;1.40;;;;;;;23.68;51.05;101517.09;4986986;28;20081;-66
2023/07/20 08:50:51;;;;;;;5.97;1.60;;;;;;;23.68;51.42;101512.63;4986730;28;20065;-66
2023/07/20 08:53:17;;;;;;;5.75;1.50;;;;;;;23.70;51.44;101520.44;4985115;28;20085;-66
2023/07/20 08:55:44;;;;;;;3.88;1.42;;;;;;;23.80;51.04;101517.75;4986058;28;20026;-65
2023/07/20 08:58:12;;;;;;;2.95;1.30;;;;;;;23.86;50.42;101517.19;4986772;28;20041;-68
2023/07/20 09:00:37;;;;;;;7.70;1.30;;;;;;;23.88;50.23;101517.91;4986366;28;20105;-66
2023/07/20 09:03:04;;;;;;;4.50;1.20;;;;;;;23.93;50.25;101514.81;4986403;28;20109;-64
2023/07/20 09:05:30;;;;;;;3.63;1.20;;;;;;;23.94;50.22;101505.81;4986824;28;20042;-66
2023/07/20 09:07:55;;;;;;;4.90;1.58;;;;;;;23.92;50.32;101518.44;4985619;28;20042;-67
2023/07/20 09:10:24;;;;;;;3.28;1.15;;;;;;;23.88;50.28;101517.91;4984591;28;20050;-67
2023/07/20 09:12:50;;;;;;;3.92;1.23;;;;;;;23.86;50.09;101510.06;4986766;28;20026;-66
2023/07/20 09:15:17;;;;;;;3.55;1.17;;;;;;;23.87;50.06;101514.38;4986672;28;20038;-68
2023/07/20 09:17:53;;;;;;;5.93;1.42;;;;;;;23.86;49.83;101511.88;4986964;28;20034;-67
2023/07/20 09:20:18;;;;;;;3.05;1.25;;;;;;;23.87;49.74;101500.25;4986920;28;20019;-69
2023/07/20 09:22:44;;;;;;;2.83;1.08;;;;;;;23.86;49.91;101504.75;4986919;28;20042;-65
2023/07/20 09:25:15;;;;;;;3.80;1.33;;;;;;;23.86;50.00;101507.41;4986719;28;20035;-68
2023/07/20 09:27:42;;;;;;;3.20;1.15;;;;;;;23.87;49.78;101500.25;4986816;28;20142;-68
2023/07/20 09:30:09;;;;;;;2.10;0.98;;;;;;;23.85;49.34;101497.75;4986381;28;20077;-68
2023/07/20 09:32:44;;;;;;;3.78;1.30;;;;;;;23.86;49.28;101503.91;4986978;28;20611;-66
2023/07/20 09:35:19;;;;;;;3.45;1.30;;;;;;;23.83;49.69;101498.81;4985664;28;20061;-69
2023/07/20 09:38:01;;;;;;;4.30;1.10;;;;;;;23.84;49.71;101500.53;4986798;28;20030;-67
2023/07/20 09:40:27;;;;;;;3.42;1.33;;;;;;;23.83;49.54;101494.41;4986454;28;20090;-68
2023/07/20 09:42:59;;;;;;;4.40;1.48;;;;;;;23.80;49.69;101491.13;4983629;28;20419;-66
2023/07/20 09:45:49;;;;;;;2.42;1.02;;;;;;;23.80;49.49;101492.00;4984638;28;20125;-68
2023/07/20 09:48:14;;;;;;;2.97;1.13;;;;;;;23.81;49.48;101501.63;4983835;28;20129;-67
2023/07/20 09:50:42;;;;;;;2.28;0.88;;;;;;;23.79;49.36;101505.44;4982813;28;20034;-66
2023/07/20 09:53:13;;;;;;;2.85;1.00;;;;;;;23.79;49.38;101497.47;4982998;28;20057;-69
2023/07/20 09:55:44;;;;;;;4.32;1.00;;;;;;;23.79;49.53;101500.13;4982717;28;21094;-69
2023/07/20 09:58:10;;;;;;;2.28;0.95;;;;;;;23.76;49.42;101490.59;4952662;28;20042;-66
2023/07/20 10:00:37;;;;;;;2.85;1.05;;;;;;;23.78;49.51;101498.44;4986428;28;20521;-67
2023/07/20 10:03:04;;;;;;;2.70;1.10;;;;;;;23.76;49.11;101492.44;4985574;28;20030;-65
2023/07/20 10:05:35;;;;;;;2.08;0.85;;;;;;;23.70;49.40;101491.19;4986753;28;20637;-67
2023/07/20 10:08:02;;;;;;;2.38;0.93;;;;;;;23.75;49.62;101498.72;4983742;28;20550;-70
2023/07/20 10:10:29;;;;;;;2.90;1.00;;;;;;;23.76;49.29;101497.75;4984156;28;20080;-70
2023/07/20 10:12:58;;;;;;;2.53;0.90;;;;;;;23.73;49.27;101494.41;4984074;28;20031;-69
2023/07/20 10:15:39;;;;;;;2.47;0.90;;;;;;;23.72;49.65;101489.22;4985637;28;20049;-69
2023/07/20 10:18:25;;;;;;;3.38;1.00;;;;;;;23.71;49.77;101493.69;4984939;28;20038;-69
2023/07/20 10:20:53;;;;;;;2.70;0.90;;;;;;;23.73;49.34;101490.88;4986547;28;20029;-67
2023/07/20 10:23:19;;;;;;;1.63;0.77;;;;;;;23.73;49.88;101485.56;4985963;28;20033;-69
2023/07/20 10:25:46;;;;;;;2.38;0.88;;;;;;;23.73;49.91;101485.56;4986368;28;20030;-68
2023/07/20 10:28:11;;;;;;;2.50;1.00;;;;;;;23.72;49.86;101482.06;4986860;28;20026;-67
2023/07/20 10:30:38;;;;;;;2.15;0.90;;;;;;;23.76;49.44;101476.47;4989087;28;20126;-69
2023/07/20 10:33:04;;;;;;;2.72;0.90;;;;;;;23.74;49.94;101479.28;4989261;28;20065;-67
2023/07/20 10:35:30;;;;;;;3.10;1.00;;;;;;;23.73;49.95;101477.59;4989570;28;20049;-67
2023/07/20 10:38:04;;;;;;;4.53;1.10;;;;;;;23.70;50.00;101477.88;4990089;28;20030;-67
2023/07/20 10:40:30;;;;;;;;;;;;;;;23.75;50.33;101472.97;4989952;28;20038;-68
2023/07/20 10:43:00;;;;;;;6.40;1.30;;;;;;;23.76;50.39;101471.97;4988369;28;19916;-70
2023/07/20 10:45:53;;;;;;;6.18;1.80;;;;;;;23.76;50.41;101469.31;4971751;28;20026;-69
2023/07/20 10:48:23;;;;;;;7.80;2.42;;;;;;;23.73;50.34;101462.47;4989563;28;20122;-67
2023/07/20 10:51:19;;;;;;;11.02;3.28;;;;;;;23.76;50.43;101463.97;4989283;28;20069;-67
2023/07/20 10:53:45;;;;;;;10.80;2.58;;;;;;;23.75;50.04;101467.66;4989507;28;20169;-67
2023/07/20 10:56:15;;;;;;;12.63;2.85;;;;;;;23.73;50.10;101459.81;4989724;28;20160;-66
2023/07/20 10:58:42;;;;;;;10.88;2.60;;;;;;;23.72;49.88;101463.44;4988480;28;20037;-69
2023/07/20 11:01:08;;;;;;;7.57;2.63;;;;;;;23.69;50.19;101457.59;4989737;28;20057;-67
2023/07/20 11:03:41;;;;;;;7.88;2.50;;;;;;;23.72;50.18;101457.31;4989237;28;20030;-69
2023/07/20 11:06:24;;;;;;;12.55;2.60;;;;;;;23.71;50.22;101463.59;4989831;28;20097;-68
2023/07/20 11:09:14;;;;;;;8.68;2.45;;;;;;;23.70;50.44;101464.56;4989312;28;20034;-68
2023/07/20 11:11:42;;;;;;;5.25;2.10;;;;;;;23.71;50.22;101453.78;4989548;28;20030;-66
2023/07/20 11:14:10;;;;;;;9.88;2.42;;;;;;;23.71;49.88;101458.28;4989300;28;20081;-69
2023/07/20 11:16:44;;;;;;;6.10;1.85;;;;;;;23.71;50.14;101458.28;4989374;28;20057;-67
2023/07/20 11:19:23;;;;;;;10.63;3.25;;;;;;;23.69;50.36;101453.09;4989389;28;20026;-67
2023/07/20 11:21:54;;;;;;;6.95;2.05;;;;;;;23.71;50.52;101453.78;4990054;28;20463;-65
2023/07/20 11:24:19;;;;;;;8.75;2.13;;;;;;;23.72;50.39;101457.31;4987305;28;20029;-69